Burlington, Iowa
Current Conditions -  °F | °C
As of 2:53 PM on Friday 31 Oct 2014 (Local Time) from KBRL Reporting Station
Few Clouds Few Clouds  
Wind Chill: 37°   Ceiling: Unl
Heat Index: 44°   Visibility: 10mi
Dew Point: 22°   Wind: 16mph
Humidity: 42%   Direction: 350°N
Pressure: 30.36"   Gusts: 25mph
Location:  40.81°N, 91.1°W
Report Text: KBRL 311953Z AUTO 35014G22KT 10SM FEW050 07/M06 A3036 RMK AO2 PK WND 35027/1916 SLP283 T00671056
Loading
Personal Weather Stations






























Interactive Weather Map
Tropical Storm Tracking
New forecast layout! Learn more

10-Day Weather Forecast

Advertisements
Track Severe Weather on mobile